createdAt,value
2022-08-26T00:00:46.053Z,27.11
2022-08-26T00:03:12.783Z,26.85
2022-08-26T00:05:40.071Z,26.75
2022-08-26T00:08:06.455Z,26.90
2022-08-26T00:10:34.078Z,26.92
2022-08-26T00:13:00.596Z,27.00
2022-08-26T00:15:27.103Z,27.02
2022-08-26T00:17:53.730Z,27.02
2022-08-26T00:20:20.127Z,26.96
2022-08-26T00:22:46.534Z,27.05
2022-08-26T00:25:13.161Z,27.08
2022-08-26T00:27:39.866Z,27.02
2022-08-26T00:30:09.021Z,26.99
2022-08-26T00:32:36.193Z,26.95
2022-08-26T00:35:03.909Z,26.96
2022-08-26T00:37:30.383Z,26.81
2022-08-26T00:39:56.784Z,26.73
2022-08-26T00:42:27.246Z,26.69
2022-08-26T00:44:57.264Z,26.64
2022-08-26T00:47:24.015Z,26.78
2022-08-26T00:49:50.410Z,26.79
2022-08-26T00:52:18.178Z,26.80
2022-08-26T00:54:44.582Z,26.83
2022-08-26T00:57:16.406Z,26.84
2022-08-26T00:59:43.193Z,26.82
2022-08-26T01:02:09.645Z,26.80
2022-08-26T01:04:47.094Z,26.78
2022-08-26T01:07:13.896Z,26.78
2022-08-26T01:09:40.305Z,26.76
2022-08-26T01:12:07.216Z,26.76
2022-08-26T01:14:33.645Z,26.72
2022-08-26T01:17:00.053Z,26.73
2022-08-26T01:19:26.662Z,26.56
2022-08-26T01:21:53.076Z,26.47
2022-08-26T01:24:19.632Z,26.44
2022-08-26T01:26:46.024Z,26.38
2022-08-26T01:29:12.435Z,26.44
2022-08-26T01:31:39.055Z,26.39
2022-08-26T01:34:05.529Z,26.36
2022-08-26T01:36:31.929Z,26.37
2022-08-26T01:38:58.323Z,26.33
2022-08-26T01:41:27.415Z,26.20
2022-08-26T01:43:55.631Z,26.18
2022-08-26T01:46:22.056Z,26.18
2022-08-26T01:48:48.597Z,26.23
2022-08-26T01:51:18.809Z,26.21
2022-08-26T01:53:46.870Z,26.19
2022-08-26T01:56:13.344Z,26.12
2022-08-26T01:58:39.743Z,25.79
2022-08-26T02:01:06.175Z,25.85
2022-08-26T02:03:32.731Z,25.97
2022-08-26T02:05:59.418Z,26.03
2022-08-26T02:08:25.821Z,26.01
2022-08-26T02:10:54.102Z,26.07
2022-08-26T02:13:21.365Z,26.09
2022-08-26T02:15:48.884Z,26.12
2022-08-26T02:18:15.925Z,26.15
2022-08-26T02:20:42.773Z,26.19
2022-08-26T02:23:09.415Z,26.23
2022-08-26T02:25:35.809Z,26.12
2022-08-26T02:28:02.205Z,26.01
2022-08-26T02:30:29.357Z,25.94
2022-08-26T02:32:55.784Z,25.98
2022-08-26T02:35:22.751Z,26.03
2022-08-26T02:37:49.419Z,25.98
2022-08-26T02:40:16.043Z,26.03
2022-08-26T02:42:42.517Z,26.04
2022-08-26T02:45:11.045Z,26.04
2022-08-26T02:47:37.445Z,26.02
2022-08-26T02:50:03.989Z,25.96
2022-08-26T02:52:30.382Z,26.03
2022-08-26T02:54:58.702Z,26.03
2022-08-26T02:57:25.989Z,26.00
2022-08-26T02:59:52.610Z,25.98
2022-08-26T03:02:19.041Z,25.98
2022-08-26T03:04:58.098Z,25.88
2022-08-26T03:07:28.545Z,25.79
2022-08-26T03:09:54.976Z,25.76
2022-08-26T03:12:21.397Z,25.72
2022-08-26T03:14:47.782Z,25.71
2022-08-26T03:17:15.353Z,25.69
2022-08-26T03:19:41.754Z,25.69
2022-08-26T03:22:08.127Z,25.74
2022-08-26T03:24:34.526Z,25.68
2022-08-26T03:27:00.942Z,25.57
2022-08-26T03:29:33.003Z,25.55
2022-08-26T03:31:59.443Z,25.57
2022-08-26T03:34:25.848Z,25.54
2022-08-26T03:36:52.283Z,25.50
2022-08-26T03:39:18.781Z,25.45
2022-08-26T03:41:45.187Z,25.40
2022-08-26T03:44:11.580Z,25.33
2022-08-26T03:46:37.998Z,25.34
2022-08-26T03:49:04.950Z,25.36
2022-08-26T03:51:31.552Z,25.34
2022-08-26T03:54:00.635Z,25.33
2022-08-26T03:56:27.103Z,25.26
2022-08-26T03:58:53.537Z,25.41
2022-08-26T04:01:19.996Z,25.45
2022-08-26T04:03:46.438Z,25.61
2022-08-26T04:06:12.809Z,25.58
2022-08-26T04:08:39.282Z,25.63
2022-08-26T04:11:06.539Z,25.49
2022-08-26T04:13:32.964Z,25.49
2022-08-26T04:15:59.388Z,25.22
2022-08-26T04:18:26.655Z,25.22
2022-08-26T04:20:59.074Z,25.43
2022-08-26T04:23:25.478Z,25.35
2022-08-26T04:25:51.934Z,25.42
2022-08-26T04:28:18.333Z,25.29
2022-08-26T04:30:44.719Z,25.18
2022-08-26T04:33:12.599Z,25.36
2022-08-26T04:35:39.588Z,25.35
2022-08-26T04:38:09.620Z,25.42
2022-08-26T04:40:36.008Z,25.43
2022-08-26T04:43:02.612Z,25.46
2022-08-26T04:45:28.990Z,25.52
2022-08-26T04:47:55.422Z,25.63
2022-08-26T04:50:21.807Z,25.59
2022-08-26T04:52:48.189Z,25.63
2022-08-26T04:55:14.604Z,25.63
2022-08-26T04:57:42.317Z,25.64
2022-08-26T05:00:09.003Z,25.52
2022-08-26T05:02:35.377Z,25.25
2022-08-26T05:05:01.784Z,25.40
2022-08-26T05:07:28.167Z,25.51
2022-08-26T05:09:54.701Z,25.58
2022-08-26T05:12:21.105Z,25.70
2022-08-26T05:14:47.527Z,25.66
2022-08-26T05:17:14.951Z,25.62
2022-08-26T05:19:43.076Z,25.51
2022-08-26T05:22:09.590Z,25.52
2022-08-26T05:24:35.970Z,25.62
2022-08-26T05:27:02.411Z,25.68
2022-08-26T05:29:35.030Z,25.69
2022-08-26T05:32:02.071Z,25.78
2022-08-26T05:34:30.331Z,25.80
2022-08-26T05:36:57.169Z,25.70
2022-08-26T05:39:23.591Z,25.71
2022-08-26T05:41:49.976Z,25.64
2022-08-26T05:44:16.412Z,25.72
2022-08-26T05:46:43.996Z,25.52
2022-08-26T05:49:12.621Z,25.56
2022-08-26T05:51:39.350Z,24.82
2022-08-26T05:54:05.748Z,24.54
2022-08-26T05:56:32.133Z,24.87
2022-08-26T05:58:59.779Z,24.72
2022-08-26T06:01:26.420Z,24.71
2022-08-26T06:03:52.902Z,24.76
2022-08-26T06:06:20.112Z,24.47
2022-08-26T06:08:47.885Z,24.35
2022-08-26T06:11:18.527Z,24.28
2022-08-26T06:13:45.247Z,24.36
2022-08-26T06:16:11.711Z,24.53
2022-08-26T06:18:38.127Z,24.69
2022-08-26T06:21:04.554Z,24.60
2022-08-26T06:23:34.846Z,24.87
2022-08-26T06:26:01.234Z,24.57
2022-08-26T06:28:35.205Z,24.75
2022-08-26T06:31:03.421Z,24.83
2022-08-26T06:33:30.525Z,24.97
2022-08-26T06:35:57.683Z,25.16
2022-08-26T06:38:25.349Z,24.92
2022-08-26T06:40:52.692Z,24.75
2022-08-26T06:43:20.377Z,24.63
2022-08-26T06:45:47.523Z,24.05
2022-08-26T06:48:14.387Z,23.63
2022-08-26T06:50:40.950Z,23.74
2022-08-26T06:53:07.694Z,23.65
2022-08-26T06:55:34.296Z,23.81
2022-08-26T06:58:00.901Z,23.49
2022-08-26T07:00:27.320Z,23.33
2022-08-26T07:02:53.788Z,23.47
2022-08-26T07:05:20.239Z,23.13
2022-08-26T07:07:46.707Z,23.51
2022-08-26T07:10:13.459Z,23.57
2022-08-26T07:12:39.930Z,23.49
2022-08-26T07:15:07.741Z,23.68
2022-08-26T07:17:34.494Z,23.90
2022-08-26T07:20:01.910Z,23.85
2022-08-26T07:22:28.293Z,23.87
2022-08-26T07:24:55.142Z,24.00
2022-08-26T07:27:22.245Z,23.49
2022-08-26T07:29:48.665Z,22.90
2022-08-26T07:32:15.140Z,23.04
2022-08-26T07:34:41.946Z,23.16
2022-08-26T07:37:08.727Z,23.44
2022-08-26T07:39:35.466Z,23.33
2022-08-26T07:42:07.480Z,23.25
2022-08-26T07:44:34.677Z,23.57
2022-08-26T07:47:01.082Z,23.61
2022-08-26T07:49:28.086Z,23.53
2022-08-26T07:51:54.587Z,23.59
2022-08-26T07:54:21.012Z,23.63
2022-08-26T07:56:53.567Z,23.52
2022-08-26T07:59:22.322Z,23.69
2022-08-26T08:01:49.384Z,24.05
2022-08-26T08:04:15.792Z,24.27
2022-08-26T08:06:44.000Z,23.79
2022-08-26T08:09:10.548Z,23.73
2022-08-26T08:11:37.166Z,23.51
2022-08-26T08:14:03.552Z,23.35
2022-08-26T08:16:36.386Z,23.38
2022-08-26T08:19:05.951Z,23.69
2022-08-26T08:21:32.388Z,24.03
2022-08-26T08:23:58.798Z,23.71
2022-08-26T08:26:26.310Z,23.35
2022-08-26T08:28:52.743Z,23.56
2022-08-26T08:31:24.660Z,22.93
2022-08-26T08:34:05.375Z,22.97
2022-08-26T08:36:36.250Z,22.99
2022-08-26T08:39:02.817Z,23.10
2022-08-26T08:41:29.249Z,22.77
2022-08-26T08:43:55.646Z,22.99
2022-08-26T08:46:22.080Z,22.96
2022-08-26T08:48:48.518Z,23.46
2022-08-26T08:51:14.944Z,23.32
2022-08-26T08:53:41.367Z,23.22
2022-08-26T08:56:09.546Z,22.87
2022-08-26T08:58:36.094Z,23.13
2022-08-26T09:01:02.664Z,22.65
2022-08-26T09:03:29.086Z,22.97
2022-08-26T09:05:55.596Z,22.90
2022-08-26T09:08:21.989Z,22.77
2022-08-26T09:10:48.446Z,22.68
2022-08-26T09:13:17.043Z,21.65
2022-08-26T09:15:51.884Z,21.55
2022-08-26T09:18:18.343Z,21.69
2022-08-26T09:20:45.570Z,21.68
2022-08-26T09:23:12.049Z,21.43
2022-08-26T09:25:38.462Z,21.72
2022-08-26T09:28:06.428Z,22.23
2022-08-26T09:30:33.782Z,22.15
2022-08-26T09:33:00.223Z,21.64
2022-08-26T09:35:27.457Z,21.58
2022-08-26T09:37:55.034Z,21.62
2022-08-26T09:40:21.739Z,21.39
2022-08-26T09:42:50.807Z,21.39
2022-08-26T09:45:17.220Z,21.68
2022-08-26T09:47:43.712Z,21.95
2022-08-26T09:50:11.004Z,22.18
2022-08-26T09:52:40.303Z,22.20
2022-08-26T09:55:09.059Z,22.44
2022-08-26T09:57:35.453Z,22.31
2022-08-26T10:00:01.839Z,22.46
2022-08-26T10:02:28.839Z,22.55
2022-08-26T10:04:55.248Z,21.73
2022-08-26T10:07:23.957Z,22.19
2022-08-26T10:09:50.350Z,22.07
2022-08-26T10:12:18.133Z,22.52
2022-08-26T10:17:12.284Z,22.67
2022-08-26T10:19:43.118Z,22.54
2022-08-26T10:22:25.604Z,22.50
2022-08-26T10:24:55.016Z,22.28
2022-08-26T10:27:21.849Z,22.25
2022-08-26T10:29:48.256Z,22.39
2022-08-26T10:32:17.496Z,22.62
2022-08-26T10:34:46.548Z,22.58
2022-08-26T10:37:14.489Z,22.60
2022-08-26T10:39:44.787Z,22.86
2022-08-26T10:42:12.472Z,22.89
2022-08-26T10:44:40.244Z,23.36
2022-08-26T10:47:10.151Z,23.32
2022-08-26T10:49:36.548Z,23.75
2022-08-26T10:52:04.159Z,23.80
2022-08-26T10:54:38.834Z,24.06
2022-08-26T10:57:05.261Z,24.18
2022-08-26T10:59:36.831Z,24.28
2022-08-26T11:02:03.878Z,23.96
2022-08-26T11:04:30.583Z,23.48
2022-08-26T11:07:01.321Z,23.97
2022-08-26T11:09:28.888Z,23.59
2022-08-26T11:11:55.364Z,23.82
2022-08-26T11:14:29.725Z,23.54
2022-08-26T11:16:57.231Z,23.40
2022-08-26T11:19:24.100Z,23.28
2022-08-26T11:21:51.089Z,23.81
2022-08-26T11:24:19.245Z,23.57
2022-08-26T11:26:56.165Z,23.97
2022-08-26T11:29:23.033Z,24.02
2022-08-26T11:31:49.524Z,23.96
2022-08-26T11:34:16.018Z,23.54
2022-08-26T11:36:44.558Z,23.81
2022-08-26T11:39:10.966Z,23.92
2022-08-26T11:41:37.404Z,23.55
2022-08-26T11:44:03.946Z,23.97
2022-08-26T11:46:31.248Z,24.14
2022-08-26T11:48:58.673Z,24.26
2022-08-26T11:51:25.131Z,24.56
2022-08-26T11:53:51.525Z,24.90
2022-08-26T11:56:18.000Z,25.19
2022-08-26T11:58:47.959Z,25.37
2022-08-26T12:01:14.429Z,25.80
2022-08-26T12:03:43.601Z,26.41
2022-08-26T12:06:10.032Z,26.66
2022-08-26T12:08:40.613Z,26.59
2022-08-26T12:11:07.429Z,27.10
2022-08-26T12:13:34.329Z,27.31
2022-08-26T12:16:01.109Z,27.42
2022-08-26T12:18:29.180Z,27.24
2022-08-26T12:20:56.376Z,27.59
2022-08-26T12:23:23.011Z,27.27
2022-08-26T12:25:51.423Z,27.46
2022-08-26T12:28:17.865Z,27.37
2022-08-26T12:30:46.088Z,28.23
2022-08-26T12:33:22.099Z,28.34
2022-08-26T12:35:52.877Z,27.48
2022-08-26T12:38:21.445Z,27.25
2022-08-26T12:40:47.863Z,26.92
2022-08-26T12:43:14.254Z,26.66
2022-08-26T12:45:40.742Z,26.71
2022-08-26T12:48:07.282Z,26.48
2022-08-26T12:50:33.726Z,26.49
2022-08-26T12:53:00.116Z,26.71
2022-08-26T12:55:26.520Z,26.72
2022-08-26T12:57:52.968Z,26.52
2022-08-26T13:00:19.364Z,26.49
2022-08-26T13:02:47.917Z,27.00
2022-08-26T13:05:14.343Z,27.34
2022-08-26T13:07:40.732Z,27.67
2022-08-26T13:10:07.126Z,27.26
2022-08-26T13:12:33.564Z,27.40
2022-08-26T13:14:59.959Z,26.93
2022-08-26T13:17:26.357Z,26.24
2022-08-26T13:19:52.774Z,25.84
2022-08-26T13:22:19.225Z,25.84
2022-08-26T13:24:45.606Z,25.60
2022-08-26T13:27:12.020Z,25.81
2022-08-26T13:29:38.487Z,26.13
2022-08-26T13:32:05.066Z,26.48
2022-08-26T13:34:31.516Z,26.11
2022-08-26T13:36:57.888Z,26.30
2022-08-26T13:39:24.327Z,26.51
2022-08-26T13:41:50.762Z,26.29
2022-08-26T13:44:17.167Z,26.47
2022-08-26T13:49:14.841Z,26.62
2022-08-26T13:51:44.127Z,26.46
2022-08-26T13:54:10.538Z,26.38
2022-08-26T13:56:36.979Z,26.35
2022-08-26T13:59:03.369Z,26.19
2022-08-26T14:01:32.221Z,25.86
2022-08-26T14:03:58.765Z,25.93
2022-08-26T14:06:25.259Z,26.59
2022-08-26T14:08:51.644Z,26.71
2022-08-26T14:11:18.048Z,27.31
2022-08-26T14:13:44.500Z,27.42
2022-08-26T14:16:10.929Z,27.09
2022-08-26T14:18:41.868Z,27.10
2022-08-26T14:21:09.397Z,26.68
2022-08-26T14:23:37.252Z,26.61
2022-08-26T14:26:03.637Z,27.31
2022-08-26T14:28:30.136Z,27.15
2022-08-26T14:30:56.629Z,27.19
2022-08-26T14:33:23.075Z,27.72
2022-08-26T14:35:49.921Z,27.59
2022-08-26T14:38:16.449Z,26.29
2022-08-26T14:40:42.876Z,25.47
2022-08-26T14:43:09.410Z,25.32
2022-08-26T14:45:35.945Z,24.76
2022-08-26T14:48:02.416Z,24.73
2022-08-26T14:50:28.815Z,24.75
2022-08-26T14:52:55.184Z,24.66
2022-08-26T14:55:21.579Z,24.50
2022-08-26T14:57:47.969Z,24.66
2022-08-26T15:00:14.374Z,25.26
2022-08-26T15:02:40.960Z,25.01
2022-08-26T15:05:08.285Z,25.41
2022-08-26T15:07:34.678Z,25.11
2022-08-26T15:10:01.094Z,25.18
2022-08-26T15:12:27.467Z,25.32
2022-08-26T15:14:53.883Z,25.71
2022-08-26T15:17:20.287Z,25.95
2022-08-26T15:19:46.682Z,26.11
2022-08-26T15:22:13.176Z,26.38
2022-08-26T15:24:39.575Z,26.59
2022-08-26T15:27:06.701Z,26.81
2022-08-26T15:29:36.328Z,28.02
2022-08-26T15:32:02.915Z,28.19
2022-08-26T15:34:29.311Z,27.69
2022-08-26T15:36:55.729Z,27.76
2022-08-26T15:39:22.155Z,28.82
2022-08-26T15:41:48.547Z,29.88
2022-08-26T15:44:14.936Z,29.89
2022-08-26T15:46:41.384Z,30.21
2022-08-26T15:49:07.844Z,31.13
2022-08-26T15:51:34.254Z,30.78
2022-08-26T15:54:00.851Z,29.86
2022-08-26T15:56:27.251Z,30.06
2022-08-26T15:58:54.723Z,29.77
2022-08-26T16:01:27.549Z,29.65
2022-08-26T16:03:54.407Z,29.27
2022-08-26T16:06:20.805Z,29.12
2022-08-26T16:08:47.199Z,28.78
2022-08-26T16:11:13.591Z,28.78
2022-08-26T16:13:40.278Z,28.67
2022-08-26T16:16:06.781Z,28.65
2022-08-26T16:18:33.256Z,28.54
2022-08-26T16:21:13.579Z,28.35
2022-08-26T16:23:40.530Z,28.08
2022-08-26T16:26:11.331Z,27.79
2022-08-26T16:28:37.723Z,27.47
2022-08-26T16:31:07.528Z,27.27
2022-08-26T16:33:34.010Z,26.89
2022-08-26T16:36:00.461Z,26.84
2022-08-26T16:38:26.864Z,26.70
2022-08-26T16:40:53.295Z,26.69
2022-08-26T16:43:19.709Z,26.73
2022-08-26T16:45:46.170Z,26.79
2022-08-26T16:48:12.605Z,26.59
2022-08-26T16:50:39.016Z,26.73
2022-08-26T16:53:05.461Z,26.78
2022-08-26T16:55:31.882Z,27.31
2022-08-26T16:57:58.294Z,27.74
2022-08-26T17:00:26.070Z,28.04
2022-08-26T17:02:52.529Z,28.12
2022-08-26T17:05:19.022Z,28.26
2022-08-26T17:07:45.408Z,28.28
2022-08-26T17:10:11.804Z,28.48
2022-08-26T17:12:38.237Z,28.53
2022-08-26T17:15:04.636Z,28.04
2022-08-26T17:17:33.085Z,28.03
2022-08-26T17:19:59.514Z,28.13
2022-08-26T17:22:25.956Z,28.05
2022-08-26T17:24:52.353Z,27.87
2022-08-26T17:27:18.770Z,27.81
2022-08-26T17:29:45.188Z,27.56
2022-08-26T17:32:11.591Z,27.24
2022-08-26T17:34:37.986Z,27.23
2022-08-26T17:37:04.408Z,27.35
2022-08-26T17:39:30.845Z,27.31
2022-08-26T17:41:57.247Z,27.12
2022-08-26T17:44:23.706Z,27.08
2022-08-26T17:46:50.176Z,26.97
2022-08-26T17:49:16.819Z,26.74
2022-08-26T17:51:44.134Z,26.51
2022-08-26T17:54:11.648Z,26.31
2022-08-26T17:56:38.095Z,26.22
2022-08-26T17:59:05.602Z,26.24
2022-08-26T18:01:32.116Z,26.15
2022-08-26T18:04:00.545Z,26.06
2022-08-26T18:06:27.617Z,25.91
2022-08-26T18:08:54.014Z,25.84
2022-08-26T18:11:20.976Z,25.64
2022-08-26T18:13:47.758Z,25.65
2022-08-26T18:16:14.263Z,25.60
2022-08-26T18:18:40.713Z,25.55
2022-08-26T18:21:07.113Z,25.77
2022-08-26T18:23:33.587Z,25.89
2022-08-26T18:26:00.025Z,25.95
2022-08-26T18:28:29.552Z,26.06
2022-08-26T18:30:58.702Z,26.00
2022-08-26T18:33:25.223Z,26.10
2022-08-26T18:35:51.643Z,26.12
2022-08-26T18:38:18.429Z,26.15
2022-08-26T18:40:45.752Z,26.18
2022-08-26T18:43:12.219Z,26.14
2022-08-26T18:45:38.642Z,26.14
2022-08-26T18:48:05.028Z,26.08
2022-08-26T18:50:31.454Z,26.04
2022-08-26T18:52:57.885Z,26.04
2022-08-26T18:55:24.260Z,25.98
2022-08-26T18:57:50.683Z,25.96
2022-08-26T19:00:17.058Z,25.78
2022-08-26T19:02:43.690Z,25.77
2022-08-26T19:05:18.250Z,25.77
2022-08-26T19:07:44.662Z,25.83
2022-08-26T19:10:14.317Z,25.81
2022-08-26T19:12:40.739Z,25.84
2022-08-26T19:15:07.569Z,25.92
2022-08-26T19:17:33.960Z,25.92
2022-08-26T19:20:00.363Z,25.84
2022-08-26T19:22:26.772Z,25.77
2022-08-26T19:24:53.215Z,25.70
2022-08-26T19:27:19.636Z,25.78
2022-08-26T19:29:46.023Z,25.75
2022-08-26T19:32:12.443Z,25.80
2022-08-26T19:34:38.847Z,25.81
2022-08-26T19:37:05.267Z,25.85
2022-08-26T19:39:31.671Z,25.58
2022-08-26T19:41:58.062Z,25.61
2022-08-26T19:44:24.490Z,25.54
2022-08-26T19:46:50.890Z,25.49
2022-08-26T19:49:17.318Z,25.35
2022-08-26T19:51:43.731Z,25.30
2022-08-26T19:54:10.135Z,25.31
2022-08-26T19:56:36.580Z,25.47
2022-08-26T19:59:03.005Z,25.51
2022-08-26T20:01:29.471Z,25.36
2022-08-26T20:06:27.227Z,25.36
2022-08-26T20:08:55.013Z,25.29
2022-08-26T20:11:22.864Z,25.32
2022-08-26T20:13:49.269Z,25.29
2022-08-26T20:16:15.798Z,25.45
2022-08-26T20:18:42.229Z,25.46
2022-08-26T20:21:08.621Z,25.31
2022-08-26T20:23:35.090Z,25.32
2022-08-26T20:26:01.509Z,25.10
2022-08-26T20:28:27.911Z,25.10
2022-08-26T20:30:55.552Z,24.95
2022-08-26T20:33:21.969Z,24.82
2022-08-26T20:35:50.686Z,24.76
2022-08-26T20:38:20.928Z,24.61
2022-08-26T20:40:48.120Z,24.85
2022-08-26T20:43:14.518Z,24.58
2022-08-26T20:45:40.976Z,24.34
2022-08-26T20:48:07.441Z,24.46
2022-08-26T20:50:33.884Z,24.37
2022-08-26T20:53:03.253Z,24.46
2022-08-26T20:55:29.629Z,24.44
2022-08-26T20:57:58.159Z,24.01
2022-08-26T21:00:26.576Z,24.05
2022-08-26T21:03:01.556Z,23.99
2022-08-26T21:05:27.949Z,24.02
2022-08-26T21:07:56.243Z,23.87
2022-08-26T21:10:22.637Z,23.77
2022-08-26T21:12:51.862Z,23.73
2022-08-26T21:15:18.273Z,23.70
2022-08-26T21:17:44.691Z,23.81
2022-08-26T21:20:12.181Z,23.65
2022-08-26T21:22:38.576Z,23.57
2022-08-26T21:25:04.975Z,23.50
2022-08-26T21:27:31.390Z,23.51
2022-08-26T21:29:59.151Z,23.32
2022-08-26T21:32:25.616Z,23.24
2022-08-26T21:34:52.010Z,23.36
2022-08-26T21:37:18.454Z,23.05
2022-08-26T21:39:44.896Z,22.91
2022-08-26T21:42:11.336Z,22.98
2022-08-26T21:44:37.715Z,22.98
2022-08-26T21:47:04.100Z,23.01
2022-08-26T21:49:30.522Z,23.20
2022-08-26T21:51:57.011Z,23.28
2022-08-26T21:54:23.457Z,23.50
2022-08-26T21:56:50.202Z,23.43
2022-08-26T21:59:16.604Z,23.62
2022-08-26T22:01:43.080Z,23.63
2022-08-26T22:04:09.495Z,23.71
2022-08-26T22:06:36.893Z,23.81
2022-08-26T22:09:03.315Z,23.83
2022-08-26T22:11:29.767Z,23.77
2022-08-26T22:13:56.159Z,23.86
2022-08-26T22:16:22.645Z,23.95
2022-08-26T22:18:50.199Z,23.94
2022-08-26T22:21:16.612Z,23.99
2022-08-26T22:23:43.022Z,23.91
2022-08-26T22:26:09.475Z,23.85
2022-08-26T22:28:35.851Z,23.95
2022-08-26T22:31:02.384Z,23.98
2022-08-26T22:33:29.004Z,23.97
2022-08-26T22:35:55.411Z,23.97
2022-08-26T22:38:21.923Z,23.95
2022-08-26T22:40:48.311Z,23.84
2022-08-26T22:43:14.984Z,23.85
2022-08-26T22:45:41.457Z,23.75
2022-08-26T22:48:07.893Z,23.54
2022-08-26T22:50:34.290Z,23.34
2022-08-26T22:53:00.735Z,23.40
2022-08-26T22:55:27.135Z,23.38
2022-08-26T22:57:53.543Z,23.44
2022-08-26T23:00:19.967Z,23.32
2022-08-26T23:02:59.445Z,23.12
2022-08-26T23:05:27.791Z,23.14
2022-08-26T23:07:54.192Z,23.26
2022-08-26T23:10:20.635Z,23.13
2022-08-26T23:12:47.019Z,22.79
2022-08-26T23:15:13.466Z,22.85
2022-08-26T23:17:39.913Z,22.82
2022-08-26T23:20:06.332Z,22.93
2022-08-26T23:22:32.742Z,23.04
2022-08-26T23:25:02.839Z,22.94
2022-08-26T23:27:34.099Z,22.75
2022-08-26T23:30:00.499Z,22.82
2022-08-26T23:32:26.888Z,22.60
2022-08-26T23:34:53.310Z,22.65
2022-08-26T23:37:19.723Z,23.00
2022-08-26T23:39:48.350Z,23.13
2022-08-26T23:42:14.772Z,23.25
2022-08-26T23:44:41.165Z,23.19
2022-08-26T23:47:07.808Z,23.30
2022-08-26T23:49:34.210Z,23.44
2022-08-26T23:52:00.614Z,23.28
2022-08-26T23:54:27.064Z,23.43
2022-08-26T23:56:53.530Z,23.42
2022-08-26T23:59:22.697Z,23.42
